Harve-St-Pierre, Canada
Current Conditions -  °F | °C
As of 6:00 PM on Monday 26 Jan 2015 (Local Time) from CYGV Reporting Station
Clear Clear  
Wind Chill: -21°   Ceiling: Unl
Heat Index: -8°   Visibility: 9mi
Dew Point: -13°   Wind: 6mph
Humidity: 77%   Direction: 290°WNW
Pressure: 30.18"   Gusts: NA
Location:  50.24°N, 63.6°W
Report Text: CYGV 262200Z AUTO 29005KT 9SM CLR M22/M25 A3018 RMK PRESRR SLP223
Loading
Personal Weather Stations






























Interactive Weather Map New forecast layout! Learn more

10-Day Weather Forecast

Advertisements
Track Severe Weather on mobile